Time;durP1;ratioP1;P1;durP2;ratioP2;P2;SDS_P1;SDS_P2;PMS_P1;PMS_P2;Temp;Humidity;BMP_temperature;BMP_pressure;BME280_temperature;BME280_humidity;BME280_pressure;Samples;Min_cycle;Max_cycle;Signal;HPM_P1;HPM_P2
2022/08/04 00:03:18;;;;;;;4.88;0.75;;;;;;;15.01;65.80;100816.31;7395405;19;20010;-49
2022/08/04 00:06:39;;;;;;;5.60;0.85;;;;;;;14.97;66.20;100817.44;7403346;19;20025;-48
2022/08/04 00:09:15;;;;;;;2.60;1.00;;;;;;;14.99;65.87;100829.81;7400264;19;20006;-50
2022/08/04 00:15:12;;;;;;;4.05;0.82;;;;;;;15.00;65.73;100828.66;7397010;19;20010;-48
2022/08/04 00:21:45;;;;;;;2.85;0.60;;;;;;;14.79;66.29;100825.50;7402359;19;20482;-48
2022/08/04 00:24:22;;;;;;;2.80;0.77;;;;;;;14.76;66.06;100828.22;7399145;19;20018;-50
2022/08/04 00:27:25;;;;;;;6.38;0.70;;;;;;;14.71;66.79;100832.13;7404410;19;20007;-49
2022/08/04 00:29:56;;;;;;;3.55;0.88;;;;;;;14.73;66.26;100821.41;7403847;19;20007;-50
2022/08/04 00:36:31;;;;;;;1.80;0.70;;;;;;;14.62;66.40;100812.03;7399078;19;20764;-51
2022/08/04 00:39:20;;;;;;;2.60;0.60;;;;;;;14.57;67.07;100818.75;7403221;19;20014;-48
2022/08/04 00:42:21;;;;;;;4.03;0.80;;;;;;;14.51;67.91;100819.41;7401441;19;20017;-52
2022/08/04 00:49:02;;;;;;;4.00;0.90;;;;;;;14.42;68.08;100813.28;7390690;19;20037;-49
2022/08/04 00:51:40;;;;;;;3.10;0.77;;;;;;;14.42;67.56;100818.84;7394093;19;20442;-49
2022/08/04 00:58:04;;;;;;;3.70;0.80;;;;;;;14.50;67.07;100815.84;7398063;19;20007;-48
2022/08/04 01:00:44;;;;;;;5.77;3.33;;;;;;;14.48;67.62;100817.38;7399822;19;20030;-48
2022/08/04 01:03:34;;;;;;;5.65;1.10;;;;;;;14.41;68.21;100815.25;7399535;19;20007;-49
2022/08/04 01:23:56;;;;;;;3.38;1.13;;;;;;;14.13;67.93;100822.22;7400526;19;20013;-55
2022/08/04 01:27:00;;;;;;;4.78;1.23;;;;;;;14.04;68.29;100805.72;7401176;19;20014;-49
2022/08/04 01:29:54;;;;;;;2.65;1.05;;;;;;;14.01;68.15;100812.84;7396924;19;20476;-49
2022/08/04 01:32:37;;;;;;;1.90;1.35;;;;;;;13.94;68.31;100823.03;7398260;19;20472;-50
2022/08/04 01:38:33;;;;;;;6.45;0.80;;;;;;;13.83;68.41;100808.06;7401736;19;20010;-50
2022/08/04 01:48:51;;;;;;;10.80;2.25;;;;;;;13.71;68.58;100817.38;7394737;19;20014;-52
2022/08/04 01:58:47;;;;;;;2.08;0.80;;;;;;;13.62;68.53;100819.56;7392589;19;20015;-49
2022/08/04 02:01:37;;;;;;;2.85;1.00;;;;;;;13.62;67.87;100819.56;7394231;19;20025;-49
2022/08/04 02:04:05;;;;;;;3.42;1.20;;;;;;;13.64;67.90;100817.22;7398383;19;20082;-48
2022/08/04 02:07:32;;;;;;;13.45;1.27;;;;;;;13.61;68.45;100812.38;7399351;19;20096;-51
2022/08/04 02:13:34;;;;;;;4.05;0.80;;;;;;;13.46;68.65;100823.53;7397262;19;20022;-48
2022/08/04 02:22:38;;;;;;;5.00;1.10;;;;;;;13.42;68.55;100829.81;7397731;19;20010;-48
2022/08/04 02:32:09;;;;;;;3.15;1.30;;;;;;;13.30;68.53;100820.81;7399321;19;20370;-47
2022/08/04 02:35:10;;;;;;;6.40;1.30;;;;;;;13.22;69.01;100828.16;7399672;19;20007;-48
2022/08/04 02:38:03;;;;;;;3.90;1.08;;;;;;;13.14;69.06;100822.78;7396924;19;20010;-51
2022/08/04 02:40:32;;;;;;;1.77;0.88;;;;;;;13.08;68.78;100824.25;7398957;19;20022;-49
2022/08/04 02:49:51;;;;;;;3.23;1.47;;;;;;;13.09;68.58;100829.44;7394933;19;20037;-48
2022/08/04 02:59:25;;;;;;;8.35;2.72;;;;;;;12.95;69.17;100837.38;7392643;19;20014;-48
2022/08/04 03:01:55;;;;;;;4.38;0.88;;;;;;;12.83;69.55;100821.63;7394312;19;20131;-48
2022/08/04 03:04:50;;;;;;;7.60;1.58;;;;;;;12.79;69.89;100836.56;7392270;19;20015;-49
2022/08/04 03:07:53;;;;;;;6.20;1.08;;;;;;;12.78;70.10;100830.25;7389986;19;20010;-52
2022/08/04 03:14:34;;;;;;;4.18;0.88;;;;;;;12.76;70.45;100832.53;7395908;19;20010;-51
2022/08/04 03:17:29;;;;;;;5.63;1.35;;;;;;;12.71;70.74;100834.78;7392638;19;20485;-50
2022/08/04 03:33:56;;;;;;;8.07;1.33;;;;;;;12.53;71.08;100853.75;7394984;19;20015;-49
2022/08/04 03:37:01;;;;;;;8.43;1.20;;;;;;;12.56;70.96;100855.81;7394936;19;20032;-48
2022/08/04 03:39:57;;;;;;;1.45;0.77;;;;;;;12.59;70.75;100866.22;7402728;19;20033;-48
2022/08/04 03:43:22;;;;;;;2.92;0.70;;;;;;;12.57;70.75;100868.56;7405000;19;20014;-47
2022/08/04 03:53:33;;;;;;;5.43;0.93;;;;;;;12.42;70.94;100872.09;7401870;19;20007;-50
2022/08/04 03:56:19;;;;;;;5.35;0.90;;;;;;;12.42;71.06;100877.66;7399892;19;20002;-50
2022/08/04 04:03:01;;;;;;;3.72;0.95;;;;;;;12.29;71.43;100884.41;7398991;19;20090;-51
2022/08/04 04:09:17;;;;;;;3.85;0.80;;;;;;;12.15;72.50;100884.03;7396576;19;20014;-49
2022/08/04 04:19:14;;;;;;;7.93;1.63;;;;;;;12.11;72.38;100892.22;7397135;19;20019;-49
2022/08/04 04:22:00;;;;;;;3.67;0.88;;;;;;;12.04;71.79;100900.38;7403854;19;20026;-51
2022/08/04 04:28:57;;;;;;;5.22;1.10;;;;;;;11.97;72.74;100908.44;7402418;19;20070;-52
2022/08/04 04:32:13;;;;;;;5.85;1.15;;;;;;;11.95;72.61;100912.75;7403898;19;20018;-50
2022/08/04 04:35:06;;;;;;;5.40;1.08;;;;;;;12.00;72.41;100912.50;7399710;19;20014;-48
2022/08/04 04:42:06;;;;;;;4.55;1.10;;;;;;;12.05;72.44;100926.13;7401379;19;20494;-50
2022/08/04 04:45:22;;;;;;;6.45;0.90;;;;;;;12.13;72.19;100925.19;7402453;19;20011;-49
2022/08/04 04:48:07;;;;;;;4.28;1.27;;;;;;;12.10;72.76;100926.69;7401922;19;20373;-49
2022/08/04 04:51:04;;;;;;;6.50;0.90;;;;;;;12.04;72.61;100939.22;7400257;19;20003;-50
2022/08/04 04:53:37;;;;;;;2.50;0.82;;;;;;;11.99;72.64;100942.19;7404888;19;20007;-51
2022/08/04 05:00:28;;;;;;;1.83;0.85;;;;;;;11.96;73.36;100953.22;7396357;19;20002;-50
2022/08/04 05:03:33;;;;;;;2.05;1.02;;;;;;;11.97;73.68;100954.81;7402954;19;20007;-51
2022/08/04 05:10:09;;;;;;;4.75;0.90;;;;;;;12.04;73.38;100966.16;7395599;19;20357;-48
2022/08/04 05:12:49;;;;;;;3.80;0.98;;;;;;;12.00;73.55;100976.31;7399126;19;20014;-49
2022/08/04 05:19:49;;;;;;;6.35;1.00;;;;;;;11.86;74.25;100990.53;7394353;19;20362;-49
2022/08/04 05:22:30;;;;;;;2.17;1.02;;;;;;;11.85;74.05;100985.34;7399217;19;20007;-48
2022/08/04 05:25:06;;;;;;;6.10;0.98;;;;;;;11.87;74.37;100986.63;7401311;19;20358;-49
2022/08/04 05:31:17;;;;;;;1.38;0.70;;;;;;;11.95;73.74;100996.78;7375278;19;20345;-54
2022/08/04 05:37:19;;;;;;;3.88;0.80;;;;;;;11.99;73.43;100999.69;7395819;19;20010;-49
2022/08/04 05:39:56;;;;;;;5.80;2.07;;;;;;;11.98;73.78;100995.28;7401962;19;20014;-51
2022/08/04 05:42:35;;;;;;;2.30;1.00;;;;;;;11.92;74.72;101003.03;7394278;19;20563;-48
2022/08/04 05:45:05;;;;;;;3.80;1.38;;;;;;;11.94;74.27;101016.56;7395424;19;20002;-48
2022/08/04 05:51:20;;;;;;;7.22;1.00;;;;;;;12.02;74.15;101021.97;7398896;19;20011;-48
2022/08/04 05:54:09;;;;;;;6.43;1.25;;;;;;;12.00;74.28;101021.53;7398220;19;20011;-48
2022/08/04 06:08:07;;;;;;;4.40;0.90;;;;;;;12.20;73.95;101039.22;7401652;19;20006;-48
2022/08/04 06:11:06;;;;;;;3.90;1.20;;;;;;;12.22;73.85;101056.31;7397168;19;20015;-48
2022/08/04 06:14:00;;;;;;;6.22;1.17;;;;;;;12.23;74.12;101055.19;7398302;19;20437;-48
2022/08/04 06:17:13;;;;;;;2.00;1.27;;;;;;;12.27;74.16;101058.84;7395549;19;20021;-48
2022/08/04 06:20:02;;;;;;;0.80;0.80;;;;;;;12.29;74.12;101066.81;7400321;19;20027;-48
2022/08/04 06:26:25;;;;;;;3.88;0.80;;;;;;;12.42;73.82;101077.56;7395935;19;20011;-52
2022/08/04 06:29:22;;;;;;;4.20;0.90;;;;;;;12.47;73.41;101069.00;7397958;19;20070;-49
2022/08/04 06:35:00;;;;;;;8.70;1.05;;;;;;;12.45;73.83;101079.66;7394396;19;20017;-52
2022/08/04 06:37:29;;;;;;;7.32;1.38;;;;;;;12.42;74.13;101077.56;7395728;19;20007;-51
2022/08/04 06:40:24;;;;;;;7.60;2.80;;;;;;;12.42;74.35;101083.13;7399011;19;20018;-53
2022/08/04 06:43:01;;;;;;;8.07;1.45;;;;;;;12.48;74.23;101087.28;7397356;19;20468;-50
2022/08/04 06:45:30;;;;;;;6.63;1.20;;;;;;;12.52;74.50;101081.84;7394818;19;20400;-47
2022/08/04 06:47:59;;;;;;;9.15;2.55;;;;;;;12.60;74.13;101080.91;7394937;19;20017;-50
2022/08/04 06:50:28;;;;;;;4.93;1.15;;;;;;;12.73;73.94;101094.41;7394289;19;20342;-48
2022/08/04 06:56:28;;;;;;;6.10;0.88;;;;;;;12.91;73.83;101094.13;7398451;19;20003;-49
2022/08/04 06:58:58;;;;;;;6.05;1.52;;;;;;;12.93;74.25;101097.34;7393873;19;20010;-50
2022/08/04 07:01:28;;;;;;;6.15;1.02;;;;;;;13.01;74.17;101104.75;7396887;19;20030;-52
2022/08/04 07:03:55;;;;;;;6.03;1.30;;;;;;;13.08;73.92;101103.00;7394861;19;20006;-48
2022/08/04 07:06:24;;;;;;;4.78;0.88;;;;;;;13.13;73.87;101115.88;7397819;19;20011;-50
2022/08/04 07:12:50;;;;;;;4.90;0.70;;;;;;;13.31;73.44;101111.63;7395267;19;20010;-48
2022/08/04 07:18:44;;;;;;;6.15;0.93;;;;;;;13.49;73.25;101123.22;7394069;19;20014;-51
2022/08/04 07:21:20;;;;;;;2.90;1.63;;;;;;;13.54;72.92;101112.66;7391033;19;20015;-50
2022/08/04 07:23:51;;;;;;;4.70;0.93;;;;;;;13.62;72.63;101124.78;7393919;19;20003;-51
2022/08/04 07:26:25;;;;;;;4.70;1.00;;;;;;;13.67;72.92;101127.28;7391847;19;20014;-48
2022/08/04 07:28:52;;;;;;;4.85;0.90;;;;;;;13.75;72.64;101123.53;7392740;19;20011;-48
2022/08/04 07:31:22;;;;;;;3.55;0.93;;;;;;;13.86;73.06;101131.00;7392380;19;20037;-50
2022/08/04 07:34:23;;;;;;;5.22;0.90;;;;;;;13.93;72.97;101131.19;7392244;19;20488;-49
2022/08/04 07:36:56;;;;;;;3.90;1.02;;;;;;;14.00;72.43;101125.78;7393716;19;20370;-49
2022/08/04 07:39:30;;;;;;;3.08;0.70;;;;;;;14.08;72.49;101137.94;7392225;19;20015;-51
2022/08/04 07:42:18;;;;;;;5.57;0.80;;;;;;;14.18;72.46;101131.00;7392033;19;20022;-53
2022/08/04 07:44:46;;;;;;;22.15;2.35;;;;;;;14.29;72.79;101140.44;7391429;19;20516;-45
2022/08/04 07:47:13;;;;;;;5.25;1.08;;;;;;;14.40;73.17;101139.53;7393966;19;20002;-45
2022/08/04 07:49:41;;;;;;;6.13;0.93;;;;;;;14.50;73.40;101135.41;7390036;19;20010;-49
2022/08/04 07:52:25;;;;;;;3.22;0.93;;;;;;;14.60;73.63;101141.25;7392948;19;20471;-52
2022/08/04 07:55:19;;;;;;;2.20;0.90;;;;;;;14.72;73.01;101140.28;7394490;19;20086;-55
2022/08/04 07:57:59;;;;;;;6.07;1.00;;;;;;;14.87;72.95;101141.44;7393787;19;20003;-53
2022/08/04 08:00:34;;;;;;;7.95;1.00;;;;;;;14.99;73.66;101139.31;7394088;19;20011;-48
2022/08/04 08:03:06;;;;;;;6.57;1.27;;;;;;;15.17;74.41;101150.84;7392422;19;20018;-49
2022/08/04 08:05:54;;;;;;;5.93;1.10;;;;;;;15.37;75.04;101148.88;7389077;19;20049;-54
2022/08/04 08:08:41;;;;;;;4.18;0.47;;;;;;;15.63;75.17;101151.81;7392442;19;20018;-50
2022/08/04 08:11:09;;;;;;;3.42;0.73;;;;;;;15.91;74.76;101157.94;7392393;19;20024;-51
2022/08/04 08:13:38;;;;;;;4.60;1.00;;;;;;;16.33;73.82;101153.09;7391593;19;20016;-54
2022/08/04 08:16:10;;;;;;;8.23;1.02;;;;;;;16.79;72.60;101158.63;7392862;19;20039;-51
2022/08/04 08:18:41;;;;;;;3.13;0.60;;;;;;;17.35;71.04;101164.19;7390691;19;20014;-49
2022/08/04 08:21:36;;;;;;;3.92;0.50;;;;;;;18.01;68.57;101163.34;7391135;19;20033;-48
2022/08/04 08:24:35;;;;;;;2.27;0.50;;;;;;;18.76;65.13;101160.00;7393248;19;20025;-47
2022/08/04 08:27:04;;;;;;;4.90;0.70;;;;;;;19.60;61.65;101162.47;7396371;19;20481;-50
2022/08/04 08:29:36;;;;;;;6.63;1.60;;;;;;;20.32;58.65;101172.66;7397376;19;20014;-49
2022/08/04 08:32:08;;;;;;;5.22;1.58;;;;;;;20.75;57.19;101177.06;7399039;19;20111;-49
2022/08/04 08:34:37;;;;;;;;;;;;;;;21.20;53.45;101167.75;7401032;19;20024;-48
2022/08/04 08:37:36;;;;;;;2.45;0.47;;;;;;;21.86;55.89;101165.06;7401084;19;19915;-50
2022/08/04 08:40:45;;;;;;;2.30;1.45;;;;;;;22.49;49.08;101174.25;7400416;19;20010;-48
2022/08/04 08:43:54;;;;;;;4.55;0.82;;;;;;;22.35;50.39;101175.97;7397357;19;20010;-49
2022/08/04 08:47:01;;;;;;;4.57;0.63;;;;;;;22.18;50.32;101182.56;7395367;19;20077;-46
2022/08/04 08:50:13;;;;;;;1.98;0.82;;;;;;;22.52;49.03;101179.88;7397041;19;20018;-51
2022/08/04 08:53:08;;;;;;;4.45;0.47;;;;;;;22.57;47.83;101187.09;7397553;19;20502;-48
2022/08/04 08:56:07;;;;;;;2.47;0.50;;;;;;;21.89;47.32;101191.63;7398750;19;20011;-48
2022/08/04 08:58:53;;;;;;;2.10;0.30;;;;;;;20.94;47.90;101182.25;7397452;19;20016;-48
2022/08/04 09:01:48;;;;;;;2.83;0.57;;;;;;;20.51;48.34;101184.31;7395918;19;20664;-51
2022/08/04 09:04:45;;;;;;;4.13;0.60;;;;;;;19.99;48.24;101185.03;7397421;19;20028;-47
2022/08/04 09:07:32;;;;;;;4.90;0.70;;;;;;;20.31;49.43;101185.09;7395952;19;20011;-48
2022/08/04 09:10:02;;;;;;;1.30;0.60;;;;;;;21.00;49.63;101177.81;7398931;19;20082;-48
2022/08/04 09:16:26;;;;;;;4.57;0.80;;;;;;;22.66;46.51;101185.44;7393684;19;20018;-47
2022/08/04 09:22:50;;;;;;;2.58;0.70;;;;;;;22.43;46.13;101182.38;7396122;19;20366;-47
2022/08/04 09:25:47;;;;;;;1.70;0.40;;;;;;;22.07;44.86;101184.66;7398161;19;20123;-48
2022/08/04 09:28:26;;;;;;;4.40;0.80;;;;;;;22.26;45.56;101189.78;7395524;19;20025;-47
2022/08/04 09:31:18;;;;;;;3.72;0.75;;;;;;;22.79;45.54;101180.06;7398982;19;20011;-50
2022/08/04 09:34:18;;;;;;;5.57;1.38;;;;;;;23.25;44.38;101183.19;7398534;19;20021;-50
2022/08/04 09:36:55;;;;;;;4.10;0.85;;;;;;;22.73;43.93;101178.91;7395348;19;20078;-49
2022/08/04 09:39:36;;;;;;;2.97;0.43;;;;;;;22.37;43.99;101184.81;7396685;19;20499;-47
2022/08/04 09:42:24;;;;;;;3.95;0.70;;;;;;;22.78;42.71;101184.09;7395431;19;20010;-47
2022/08/04 09:45:06;;;;;;;5.38;0.68;;;;;;;23.22;42.98;101194.56;7391808;19;20341;-49
2022/08/04 09:47:53;;;;;;;3.75;0.68;;;;;;;23.64;41.74;101183.53;7397195;19;20043;-53
2022/08/04 09:50:45;;;;;;;;;;;;;;;23.08;41.44;101189.06;7396899;19;20018;-53
2022/08/04 09:53:28;;;;;;;4.00;1.67;;;;;;;22.16;42.13;101190.63;7399462;19;19933;-49
2022/08/04 10:00:01;;;;;;;3.15;1.48;;;;;;;22.75;42.89;101176.47;7398229;19;20010;-48
2022/08/04 10:02:57;;;;;;;1.95;0.52;;;;;;;23.43;41.60;101178.16;7396242;19;20007;-51
2022/08/04 10:05:39;;;;;;;3.08;0.88;;;;;;;23.77;41.42;101175.31;7393399;19;20014;-50
2022/08/04 10:08:44;;;;;;;5.32;0.80;;;;;;;23.86;38.83;101177.59;7396027;19;20014;-48
2022/08/04 10:11:57;;;;;;;3.25;0.70;;;;;;;23.25;39.55;101194.50;7396586;19;20344;-47
2022/08/04 10:14:51;;;;;;;2.85;0.80;;;;;;;22.35;41.38;101200.56;7396959;19;20014;-51
2022/08/04 10:20:51;;;;;;;3.72;1.58;;;;;;;21.99;42.72;101202.84;7395956;19;20035;-48
2022/08/04 10:23:35;;;;;;;5.55;1.80;;;;;;;22.71;42.11;101203.94;7395048;19;20015;-49
2022/08/04 10:26:33;;;;;;;2.50;0.55;;;;;;;23.13;41.46;101189.41;7392012;19;20460;-52
2022/08/04 10:29:05;;;;;;;4.75;0.70;;;;;;;22.89;41.23;101202.56;7396756;19;20039;-50
2022/08/04 10:31:38;;;;;;;3.80;0.70;;;;;;;22.99;41.00;101200.84;7393484;19;20047;-51
2022/08/04 10:34:19;;;;;;;2.67;0.60;;;;;;;23.22;40.40;101211.50;7394942;19;20472;-52
2022/08/04 10:37:04;;;;;;;5.63;0.70;;;;;;;23.52;40.44;101209.56;7395878;19;20043;-48
2022/08/04 10:43:07;;;;;;;7.40;0.80;;;;;;;23.46;39.37;101222.53;7392796;19;20007;-48
2022/08/04 10:46:38;;;;;;;1.67;0.80;;;;;;;23.59;39.00;101205.81;7394350;19;20514;-51
2022/08/04 10:49:27;;;;;;;4.97;1.17;;;;;;;22.90;40.50;101223.13;7392903;19;20014;-49
2022/08/04 10:52:13;;;;;;;2.90;0.50;;;;;;;22.23;40.40;101224.44;7394465;19;20484;-52
2022/08/04 10:55:26;;;;;;;5.88;1.83;;;;;;;21.93;40.66;101229.84;7395617;19;20007;-47
2022/08/04 10:58:51;;;;;;;3.38;0.85;;;;;;;21.85;40.43;101214.16;7396465;19;20014;-49
2022/08/04 11:01:31;;;;;;;5.25;1.27;;;;;;;21.84;40.50;101223.84;7395578;19;20052;-50
2022/08/04 11:04:47;;;;;;;1.67;0.57;;;;;;;21.40;39.77;101227.22;7397841;19;20014;-51
2022/08/04 11:07:16;;;;;;;4.82;0.70;;;;;;;21.16;41.40;101240.16;7394934;19;20585;-50
2022/08/04 11:16:54;;;;;;;3.97;0.85;;;;;;;21.48;40.49;101236.44;7395850;19;20373;-51
2022/08/04 11:19:43;;;;;;;5.57;1.17;;;;;;;21.37;40.10;101233.66;7392236;19;20025;-49
2022/08/04 11:22:21;;;;;;;5.65;1.10;;;;;;;21.35;41.43;101232.47;7392795;19;20039;-51
2022/08/04 11:24:53;;;;;;;3.97;1.25;;;;;;;21.34;41.38;101233.69;7396455;19;20014;-52
2022/08/04 11:27:54;;;;;;;6.32;1.00;;;;;;;21.37;41.65;101227.22;7394582;19;20031;-50
2022/08/04 11:30:28;;;;;;;4.43;0.68;;;;;;;21.28;41.82;101236.13;7394812;19;20039;-53
2022/08/04 11:33:25;;;;;;;1.15;0.40;;;;;;;21.01;40.97;101247.00;7392081;19;20011;-58
2022/08/04 11:36:31;;;;;;;4.45;1.60;;;;;;;20.91;41.12;101244.19;7390500;19;20011;-54
2022/08/04 11:39:10;;;;;;;5.32;0.70;;;;;;;20.88;41.45;101245.81;7386776;19;20042;-52
2022/08/04 11:42:13;;;;;;;4.03;0.52;;;;;;;20.71;41.57;101248.59;7393659;19;20419;-50
2022/08/04 11:45:09;;;;;;;3.30;0.90;;;;;;;20.69;42.59;101253.84;7392398;19;20357;-50
2022/08/04 11:47:38;;;;;;;2.47;0.63;;;;;;;21.00;42.48;101238.94;7393622;19;20010;-56
2022/08/04 11:50:19;;;;;;;1.52;0.50;;;;;;;21.06;41.92;101257.88;7391888;19;21298;-51
2022/08/04 11:52:49;;;;;;;3.45;1.85;;;;;;;21.09;42.58;101254.25;7391446;19;20039;-49
2022/08/04 11:55:20;;;;;;;3.72;0.90;;;;;;;21.00;42.42;101253.84;7394267;19;20018;-51
2022/08/04 11:57:48;;;;;;;2.85;0.88;;;;;;;20.89;42.17;101264.28;7391624;19;20019;-51
2022/08/04 12:00:23;;;;;;;1.48;0.40;;;;;;;20.81;41.85;101259.88;7400556;19;20343;-49
2022/08/04 12:03:12;;;;;;;2.85;0.40;;;;;;;20.93;40.99;101259.47;7401522;19;20033;-49
2022/08/04 12:06:14;;;;;;;0.60;0.30;;;;;;;21.04;39.86;101254.66;7399207;19;20011;-51
2022/08/04 12:09:11;;;;;;;;;;;;;;;20.91;41.49;101266.72;7398746;19;20014;-50
2022/08/04 12:12:17;;;;;;;5.38;1.15;;;;;;;20.78;41.33;101271.97;7399545;19;19910;-49
2022/08/04 12:14:53;;;;;;;0.90;0.43;;;;;;;20.65;41.98;101265.13;7402053;19;20011;-51
2022/08/04 12:17:28;;;;;;;4.07;0.77;;;;;;;20.52;42.51;101273.13;7399543;19;20006;-49
2022/08/04 12:20:42;;;;;;;1.52;0.60;;;;;;;20.45;43.05;101283.56;7399414;19;20023;-51
2022/08/04 12:23:23;;;;;;;2.67;0.80;;;;;;;20.45;42.37;101290.00;7399390;19;20002;-51
2022/08/04 12:26:02;;;;;;;4.53;1.33;;;;;;;20.49;42.82;101281.56;7398076;19;20015;-46
2022/08/04 12:28:35;;;;;;;2.10;0.77;;;;;;;20.69;42.29;101274.34;7399181;19;20025;-48
2022/08/04 12:31:46;;;;;;;1.90;0.50;;;;;;;20.95;41.56;101287.22;7396850;19;20027;-53
2022/08/04 12:34:30;;;;;;;2.30;0.60;;;;;;;21.15;41.69;101275.16;7400253;19;20006;-52
2022/08/04 12:40:55;;;;;;;2.45;0.40;;;;;;;21.59;40.65;101285.13;7397898;19;20015;-52
2022/08/04 12:43:41;;;;;;;3.20;0.77;;;;;;;21.80;40.73;101287.88;7398412;19;20018;-49
2022/08/04 12:46:16;;;;;;;4.60;1.67;;;;;;;21.80;41.57;101285.88;7397153;19;20029;-44
2022/08/04 12:48:47;;;;;;;1.73;0.90;;;;;;;21.75;41.31;101293.94;7400815;19;20035;-49
2022/08/04 12:51:15;;;;;;;1.52;0.60;;;;;;;21.68;41.12;101288.34;7396546;19;20329;-52
2022/08/04 12:54:05;;;;;;;6.05;1.40;;;;;;;21.58;41.38;101298.41;7401785;19;20006;-53
2022/08/04 12:56:57;;;;;;;2.83;0.55;;;;;;;21.01;40.91;101300.50;7399908;19;20018;-55
2022/08/04 12:59:27;;;;;;;4.47;1.20;;;;;;;20.87;41.09;101311.75;7399113;19;20006;-50
2022/08/04 13:01:57;;;;;;;4.47;1.02;;;;;;;20.98;41.01;101300.47;7397154;19;20010;-49
2022/08/04 13:04:42;;;;;;;3.55;0.63;;;;;;;21.17;40.12;101309.38;7398202;19;20033;-49
2022/08/04 13:07:26;;;;;;;1.33;0.40;;;;;;;21.24;40.10;101309.34;7395749;19;20015;-49
2022/08/04 13:09:56;;;;;;;3.50;1.95;;;;;;;21.17;40.68;101309.38;7397838;19;20010;-49
2022/08/04 13:12:28;;;;;;;;;;;;;;;21.20;40.75;101313.38;7397832;19;20010;-50
2022/08/04 13:15:10;;;;;;;1.83;0.65;;;;;;;21.29;41.36;101304.53;7399100;19;19958;-53
2022/08/04 13:17:58;;;;;;;1.23;0.40;;;;;;;21.38;41.11;101307.72;7398731;19;20011;-54
2022/08/04 13:20:30;;;;;;;2.30;0.70;;;;;;;21.48;40.95;101312.53;7392126;19;20014;-50
2022/08/04 13:23:14;;;;;;;2.55;0.70;;;;;;;21.62;40.56;101306.84;7396622;19;20017;-49
2022/08/04 13:25:53;;;;;;;2.75;0.80;;;;;;;21.76;40.14;101301.19;7395877;19;20370;-52
2022/08/04 13:28:45;;;;;;;1.15;0.40;;;;;;;21.92;39.92;101298.75;7400639;19;20023;-49
2022/08/04 13:31:18;;;;;;;4.22;0.60;;;;;;;21.83;39.93;101298.34;7397257;19;20070;-49
2022/08/04 13:33:49;;;;;;;1.30;0.45;;;;;;;21.70;39.10;101297.97;7398015;19;20043;-49
2022/08/04 13:36:24;;;;;;;0.80;0.30;;;;;;;21.54;39.13;101314.53;7395741;19;20528;-41
2022/08/04 13:38:58;;;;;;;1.05;0.60;;;;;;;21.55;39.55;101312.53;7394724;19;20047;-48
2022/08/04 13:41:28;;;;;;;2.78;0.90;;;;;;;21.78;38.77;101310.03;7393475;19;20015;-47
2022/08/04 13:44:01;;;;;;;3.38;0.75;;;;;;;22.00;38.67;101311.56;7399968;19;20015;-46
2022/08/04 13:46:54;;;;;;;6.82;2.88;;;;;;;22.33;38.09;101313.84;7394474;19;20014;-46
2022/08/04 13:53:08;;;;;;;4.63;0.70;;;;;;;22.72;37.65;101312.81;7395341;19;20035;-48
2022/08/04 13:55:36;;;;;;;1.80;0.57;;;;;;;22.77;38.34;101303.91;7395183;19;20043;-46
2022/08/04 13:58:20;;;;;;;1.75;0.60;;;;;;;23.23;38.00;101307.13;7394181;19;20340;-46
2022/08/04 14:00:57;;;;;;;4.00;1.48;;;;;;;23.70;37.67;101302.63;7396432;19;20029;-48
2022/08/04 14:03:33;;;;;;;5.57;1.15;;;;;;;24.05;37.24;101304.22;7396482;19;20017;-47
2022/08/04 14:06:43;;;;;;;2.00;0.73;;;;;;;24.23;36.27;101299.16;7394367;19;20013;-46
2022/08/04 14:09:19;;;;;;;0.40;0.30;;;;;;;24.47;35.66;101306.50;7396335;19;20015;-49
2022/08/04 14:11:53;;;;;;;1.75;0.43;;;;;;;24.39;37.11;101307.00;7394348;19;20033;-46
2022/08/04 14:14:46;;;;;;;2.33;0.73;;;;;;;23.99;36.78;101297.41;7396365;19;20017;-48
2022/08/04 14:17:22;;;;;;;2.38;0.70;;;;;;;23.60;36.84;101307.19;7395195;19;20018;-47
2022/08/04 14:19:58;;;;;;;3.38;0.90;;;;;;;23.22;37.85;101311.16;7393250;19;20011;-47
2022/08/04 14:22:27;;;;;;;3.63;1.60;;;;;;;22.84;37.76;101313.13;7389374;19;20024;-48
2022/08/04 14:25:02;;;;;;;5.03;0.95;;;;;;;22.55;37.72;101314.50;7396463;19;20007;-45
2022/08/04 14:27:40;;;;;;;3.95;1.67;;;;;;;22.25;38.18;101317.91;7394995;19;20374;-47
2022/08/04 14:30:23;;;;;;;3.17;1.70;;;;;;;22.08;40.13;101318.78;7393803;19;20334;-47
2022/08/04 14:33:12;;;;;;;2.35;0.77;;;;;;;21.83;40.04;101318.88;7394791;19;20011;-46
2022/08/04 14:35:59;;;;;;;4.15;1.02;;;;;;;21.69;40.59;101324.56;7395572;19;20070;-46
2022/08/04 14:38:47;;;;;;;3.25;0.88;;;;;;;21.57;39.91;101325.00;7396122;19;20035;-47
2022/08/04 14:41:15;;;;;;;4.22;1.02;;;;;;;21.48;40.08;101312.53;7396140;19;20516;-45
2022/08/04 14:43:54;;;;;;;4.78;0.80;;;;;;;21.40;39.94;101310.94;7395389;19;20013;-54
2022/08/04 14:46:24;;;;;;;2.75;0.77;;;;;;;21.48;40.62;101313.34;7386438;19;20019;-50
2022/08/04 14:49:25;;;;;;;4.70;1.47;;;;;;;21.44;40.21;101317.38;7396732;19;20003;-51
2022/08/04 14:51:58;;;;;;;4.40;1.20;;;;;;;21.31;40.71;101310.56;7381095;19;20541;-58
2022/08/04 14:54:33;;;;;;;4.63;1.02;;;;;;;21.22;40.74;101323.03;7390261;19;20026;-48
2022/08/04 14:57:06;;;;;;;5.40;1.10;;;;;;;21.09;40.84;101321.03;7394805;19;20514;-49
2022/08/04 14:59:43;;;;;;;3.63;0.90;;;;;;;21.00;40.46;101312.13;7393344;19;20010;-47
2022/08/04 15:02:28;;;;;;;6.40;1.70;;;;;;;20.98;39.75;101317.38;7394303;19;20017;-48
2022/08/04 15:04:58;;;;;;;5.82;1.15;;;;;;;20.93;39.92;101324.22;7391729;19;20035;-50
2022/08/04 15:07:46;;;;;;;3.13;1.20;;;;;;;20.98;39.61;101314.56;7390573;19;20014;-49
2022/08/04 15:10:13;;;;;;;3.95;1.38;;;;;;;21.10;39.67;101317.78;7392706;19;20007;-48
2022/08/04 15:12:41;;;;;;;6.85;1.17;;;;;;;21.26;39.35;101316.59;7395114;19;20022;-48
2022/08/04 15:15:09;;;;;;;6.50;1.63;;;;;;;21.32;39.70;101318.59;7393982;19;20367;-50
2022/08/04 15:17:57;;;;;;;3.20;1.00;;;;;;;21.30;40.33;101308.94;7393229;19;20361;-50
2022/08/04 15:20:24;;;;;;;4.78;0.85;;;;;;;21.16;40.43;101321.00;7390400;19;20037;-49
2022/08/04 15:22:52;;;;;;;8.07;1.80;;;;;;;21.02;40.41;101330.22;7394178;19;20043;-50
2022/08/04 15:25:20;;;;;;;4.65;0.85;;;;;;;20.93;40.10;101324.22;7392824;19;20014;-49
2022/08/04 15:28:01;;;;;;;6.47;3.15;;;;;;;20.86;40.20;101331.84;7393401;19;20019;-49
2022/08/04 15:30:31;;;;;;;3.38;1.55;;;;;;;20.91;40.67;101320.19;7391565;19;20006;-48
2022/08/04 15:33:01;;;;;;;4.15;1.15;;;;;;;21.01;40.44;101323.00;7394926;19;20047;-49
2022/08/04 15:35:32;;;;;;;3.63;0.97;;;;;;;20.98;40.18;101329.44;7397578;19;20505;-48
2022/08/04 15:38:13;;;;;;;4.28;0.60;;;;;;;20.98;40.39;101326.63;7401417;19;20013;-48
2022/08/04 15:41:04;;;;;;;3.67;1.17;;;;;;;21.14;39.70;101315.81;7401620;19;20021;-48
2022/08/04 15:47:13;;;;;;;2.25;1.02;;;;;;;21.37;38.67;101314.56;7404547;19;20010;-49
2022/08/04 15:49:42;;;;;;;5.55;0.90;;;;;;;21.53;38.72;101315.72;7403884;19;20051;-51
2022/08/04 15:56:35;;;;;;;2.17;1.48;;;;;;;22.16;36.97;101316.75;7406409;19;20007;-51
2022/08/04 16:00:01;;;;;;;3.47;1.13;;;;;;;22.40;36.91;101319.44;7402824;19;20073;-48
2022/08/04 16:02:58;;;;;;;3.30;0.85;;;;;;;22.86;36.78;101330.44;7405264;19;20007;-49
2022/08/04 16:12:53;;;;;;;3.13;0.70;;;;;;;23.27;34.87;101319.19;7398262;19;20368;-48
2022/08/04 16:22:47;;;;;;;1.73;0.70;;;;;;;22.95;36.07;101338.47;7399419;19;20007;-47
2022/08/04 16:29:22;;;;;;;4.80;1.52;;;;;;;22.20;36.36;101331.63;7401631;19;20010;-47
2022/08/04 16:32:16;;;;;;;4.43;1.17;;;;;;;21.93;37.81;101328.53;7405543;19;20011;-45
2022/08/04 16:35:17;;;;;;;3.58;1.88;;;;;;;21.76;38.41;101335.00;7403642;19;20002;-49
2022/08/04 16:38:15;;;;;;;4.55;1.38;;;;;;;21.63;38.45;101347.94;7401264;19;20006;-47
2022/08/04 16:40:43;;;;;;;3.70;1.15;;;;;;;21.47;38.39;101350.38;7402709;19;20010;-48
2022/08/04 16:43:13;;;;;;;6.72;3.28;;;;;;;21.36;39.24;101346.75;7402519;19;20011;-44
2022/08/04 16:45:45;;;;;;;2.95;1.15;;;;;;;21.25;39.28;101349.59;7399088;19;20013;-50
2022/08/04 16:52:06;;;;;;;4.18;2.53;;;;;;;21.02;39.07;101347.13;7401796;19;20018;-48